sensor_id;sensor_type;location;lat;lon;timestamp;P1;durP1;ratioP1;P2;durP2;ratioP2
21245;SDS011;10781;50.928;4.440;2023-02-03T00:02:02;8.85;;;3.55;;
21245;SDS011;10781;50.928;4.440;2023-02-03T00:04:28;8.07;;;3.28;;
21245;SDS011;10781;50.928;4.440;2023-02-03T00:06:53;7.88;;;3.47;;
21245;SDS011;10781;50.928;4.440;2023-02-03T00:09:19;12.25;;;3.50;;
21245;SDS011;10781;50.928;4.440;2023-02-03T00:11:45;10.48;;;3.40;;
21245;SDS011;10781;50.928;4.440;2023-02-03T00:14:11;10.73;;;3.33;;
21245;SDS011;10781;50.928;4.440;2023-02-03T00:16:36;12.50;;;3.50;;
21245;SDS011;10781;50.928;4.440;2023-02-03T00:19:02;9.65;;;3.10;;
21245;SDS011;10781;50.928;4.440;2023-02-03T00:21:28;6.15;;;3.05;;
21245;SDS011;10781;50.928;4.440;2023-02-03T00:23:53;10.38;;;3.22;;
21245;SDS011;10781;50.928;4.440;2023-02-03T00:26:19;5.90;;;2.97;;
21245;SDS011;10781;50.928;4.440;2023-02-03T00:28:44;8.23;;;2.95;;
21245;SDS011;10781;50.928;4.440;2023-02-03T00:31:21;7.55;;;2.85;;
21245;SDS011;10781;50.928;4.440;2023-02-03T00:33:52;9.80;;;2.58;;
21245;SDS011;10781;50.928;4.440;2023-02-03T00:36:20;7.78;;;2.72;;
21245;SDS011;10781;50.928;4.440;2023-02-03T00:38:46;8.45;;;2.60;;
21245;SDS011;10781;50.928;4.440;2023-02-03T00:41:13;8.90;;;2.55;;
21245;SDS011;10781;50.928;4.440;2023-02-03T00:43:38;8.48;;;2.67;;
21245;SDS011;10781;50.928;4.440;2023-02-03T00:46:04;9.35;;;2.50;;
21245;SDS011;10781;50.928;4.440;2023-02-03T00:48:29;9.80;;;2.78;;
21245;SDS011;10781;50.928;4.440;2023-02-03T00:50:55;11.10;;;2.70;;
21245;SDS011;10781;50.928;4.440;2023-02-03T00:53:21;6.65;;;2.13;;
21245;SDS011;10781;50.928;4.440;2023-02-03T00:55:46;6.18;;;2.50;;
21245;SDS011;10781;50.928;4.440;2023-02-03T00:58:12;9.90;;;2.60;;
21245;SDS011;10781;50.928;4.440;2023-02-03T01:00:38;7.10;;;2.35;;
21245;SDS011;10781;50.928;4.440;2023-02-03T01:03:03;8.65;;;2.53;;
21245;SDS011;10781;50.928;4.440;2023-02-03T01:05:29;8.85;;;2.30;;
21245;SDS011;10781;50.928;4.440;2023-02-03T01:07:55;6.50;;;2.35;;
21245;SDS011;10781;50.928;4.440;2023-02-03T01:10:21;7.80;;;2.85;;
21245;SDS011;10781;50.928;4.440;2023-02-03T01:12:46;10.65;;;2.13;;
21245;SDS011;10781;50.928;4.440;2023-02-03T01:15:12;7.47;;;2.17;;
21245;SDS011;10781;50.928;4.440;2023-02-03T01:17:37;7.32;;;2.25;;
21245;SDS011;10781;50.928;4.440;2023-02-03T01:20:03;8.68;;;2.20;;
21245;SDS011;10781;50.928;4.440;2023-02-03T01:22:29;9.13;;;2.10;;
21245;SDS011;10781;50.928;4.440;2023-02-03T01:24:55;10.65;;;2.05;;
21245;SDS011;10781;50.928;4.440;2023-02-03T01:27:21;11.60;;;1.98;;
21245;SDS011;10781;50.928;4.440;2023-02-03T01:29:47;10.82;;;2.30;;
21245;SDS011;10781;50.928;4.440;2023-02-03T01:32:13;7.15;;;1.98;;
21245;SDS011;10781;50.928;4.440;2023-02-03T01:34:38;8.32;;;2.28;;
21245;SDS011;10781;50.928;4.440;2023-02-03T01:37:04;8.38;;;2.30;;
21245;SDS011;10781;50.928;4.440;2023-02-03T01:39:30;7.55;;;1.90;;
21245;SDS011;10781;50.928;4.440;2023-02-03T01:41:55;11.00;;;2.08;;
21245;SDS011;10781;50.928;4.440;2023-02-03T01:44:33;10.43;;;2.13;;
21245;SDS011;10781;50.928;4.440;2023-02-03T01:47:00;9.40;;;1.80;;
21245;SDS011;10781;50.928;4.440;2023-02-03T01:49:31;8.75;;;2.40;;
21245;SDS011;10781;50.928;4.440;2023-02-03T01:52:00;12.13;;;2.00;;
21245;SDS011;10781;50.928;4.440;2023-02-03T01:54:29;6.00;;;1.90;;
21245;SDS011;10781;50.928;4.440;2023-02-03T01:56:58;6.07;;;1.80;;
21245;SDS011;10781;50.928;4.440;2023-02-03T01:59:27;7.25;;;1.92;;
21245;SDS011;10781;50.928;4.440;2023-02-03T02:01:55;7.82;;;2.28;;
21245;SDS011;10781;50.928;4.440;2023-02-03T02:04:22;7.82;;;1.70;;
21245;SDS011;10781;50.928;4.440;2023-02-03T02:06:54;5.93;;;1.80;;
21245;SDS011;10781;50.928;4.440;2023-02-03T02:09:22;7.55;;;1.92;;
21245;SDS011;10781;50.928;4.440;2023-02-03T02:11:48;6.78;;;1.70;;
21245;SDS011;10781;50.928;4.440;2023-02-03T02:14:14;8.45;;;1.85;;
21245;SDS011;10781;50.928;4.440;2023-02-03T02:17:01;5.93;;;1.95;;
21245;SDS011;10781;50.928;4.440;2023-02-03T02:19:50;8.20;;;1.60;;
21245;SDS011;10781;50.928;4.440;2023-02-03T02:42:34;8.55;;;1.90;;
21245;SDS011;10781;50.928;4.440;2023-02-03T02:45:08;8.15;;;1.58;;
21245;SDS011;10781;50.928;4.440;2023-02-03T02:47:39;7.50;;;1.35;;
21245;SDS011;10781;50.928;4.440;2023-02-03T02:50:11;7.30;;;1.83;;
21245;SDS011;10781;50.928;4.440;2023-02-03T02:52:45;5.75;;;1.48;;
21245;SDS011;10781;50.928;4.440;2023-02-03T02:55:16;6.18;;;1.77;;
21245;SDS011;10781;50.928;4.440;2023-02-03T02:57:48;6.88;;;1.50;;
21245;SDS011;10781;50.928;4.440;2023-02-03T03:00:16;8.18;;;2.08;;
21245;SDS011;10781;50.928;4.440;2023-02-03T03:02:42;5.10;;;1.50;;
21245;SDS011;10781;50.928;4.440;2023-02-03T03:05:08;7.30;;;1.65;;
21245;SDS011;10781;50.928;4.440;2023-02-03T03:07:38;7.28;;;1.48;;
21245;SDS011;10781;50.928;4.440;2023-02-03T03:10:14;7.20;;;1.48;;
21245;SDS011;10781;50.928;4.440;2023-02-03T03:12:48;6.93;;;1.55;;
21245;SDS011;10781;50.928;4.440;2023-02-03T03:15:19;6.22;;;1.58;;
21245;SDS011;10781;50.928;4.440;2023-02-03T03:17:51;9.55;;;1.95;;
21245;SDS011;10781;50.928;4.440;2023-02-03T03:20:27;5.30;;;1.38;;
21245;SDS011;10781;50.928;4.440;2023-02-03T03:22:56;6.57;;;1.90;;
21245;SDS011;10781;50.928;4.440;2023-02-03T03:25:29;6.72;;;1.50;;
21245;SDS011;10781;50.928;4.440;2023-02-03T03:28:01;9.50;;;1.88;;
21245;SDS011;10781;50.928;4.440;2023-02-03T03:30:33;7.30;;;1.58;;
21245;SDS011;10781;50.928;4.440;2023-02-03T03:33:00;9.77;;;1.85;;
21245;SDS011;10781;50.928;4.440;2023-02-03T03:35:30;8.18;;;1.40;;
21245;SDS011;10781;50.928;4.440;2023-02-03T03:38:08;7.55;;;1.50;;
21245;SDS011;10781;50.928;4.440;2023-02-03T03:40:41;6.40;;;1.70;;
21245;SDS011;10781;50.928;4.440;2023-02-03T03:43:16;5.60;;;1.50;;
21245;SDS011;10781;50.928;4.440;2023-02-03T03:45:47;6.38;;;1.55;;
21245;SDS011;10781;50.928;4.440;2023-02-03T03:48:32;6.60;;;2.03;;
21245;SDS011;10781;50.928;4.440;2023-02-03T03:51:03;4.13;;;1.52;;
21245;SDS011;10781;50.928;4.440;2023-02-03T03:53:37;7.68;;;1.98;;
21245;SDS011;10781;50.928;4.440;2023-02-03T03:56:05;6.35;;;1.35;;
21245;SDS011;10781;50.928;4.440;2023-02-03T03:58:33;6.38;;;1.67;;
21245;SDS011;10781;50.928;4.440;2023-02-03T04:01:02;5.72;;;1.30;;
21245;SDS011;10781;50.928;4.440;2023-02-03T04:03:36;10.77;;;1.73;;
21245;SDS011;10781;50.928;4.440;2023-02-03T04:06:05;5.32;;;1.42;;
21245;SDS011;10781;50.928;4.440;2023-02-03T04:08:31;12.25;;;1.98;;
21245;SDS011;10781;50.928;4.440;2023-02-03T04:10:57;5.72;;;1.55;;
21245;SDS011;10781;50.928;4.440;2023-02-03T04:13:22;3.05;;;1.30;;
21245;SDS011;10781;50.928;4.440;2023-02-03T04:15:48;5.35;;;1.38;;
21245;SDS011;10781;50.928;4.440;2023-02-03T04:18:14;5.13;;;1.42;;
21245;SDS011;10781;50.928;4.440;2023-02-03T04:20:40;6.78;;;1.38;;
21245;SDS011;10781;50.928;4.440;2023-02-03T04:23:07;7.35;;;1.35;;
21245;SDS011;10781;50.928;4.440;2023-02-03T04:25:33;6.28;;;1.52;;
21245;SDS011;10781;50.928;4.440;2023-02-03T04:27:59;7.85;;;1.20;;
21245;SDS011;10781;50.928;4.440;2023-02-03T04:30:25;4.60;;;1.40;;
21245;SDS011;10781;50.928;4.440;2023-02-03T04:32:51;4.32;;;1.38;;
21245;SDS011;10781;50.928;4.440;2023-02-03T04:35:17;6.20;;;1.40;;
21245;SDS011;10781;50.928;4.440;2023-02-03T04:37:43;4.82;;;1.23;;
21245;SDS011;10781;50.928;4.440;2023-02-03T04:40:09;4.22;;;1.48;;
21245;SDS011;10781;50.928;4.440;2023-02-03T04:42:36;5.22;;;1.30;;
21245;SDS011;10781;50.928;4.440;2023-02-03T04:45:03;3.30;;;1.05;;
21245;SDS011;10781;50.928;4.440;2023-02-03T04:47:29;5.43;;;1.30;;
21245;SDS011;10781;50.928;4.440;2023-02-03T04:49:55;7.75;;;1.00;;
21245;SDS011;10781;50.928;4.440;2023-02-03T04:52:20;3.60;;;1.10;;
21245;SDS011;10781;50.928;4.440;2023-02-03T04:54:46;5.15;;;1.30;;
21245;SDS011;10781;50.928;4.440;2023-02-03T04:57:12;8.25;;;1.20;;
21245;SDS011;10781;50.928;4.440;2023-02-03T04:59:37;5.97;;;1.38;;
21245;SDS011;10781;50.928;4.440;2023-02-03T05:02:03;4.95;;;1.08;;
21245;SDS011;10781;50.928;4.440;2023-02-03T05:04:29;6.35;;;1.23;;
21245;SDS011;10781;50.928;4.440;2023-02-03T05:06:55;3.08;;;1.00;;
21245;SDS011;10781;50.928;4.440;2023-02-03T05:09:21;6.70;;;1.23;;
21245;SDS011;10781;50.928;4.440;2023-02-03T05:11:51;5.00;;;1.85;;
21245;SDS011;10781;50.928;4.440;2023-02-03T05:14:16;4.15;;;1.30;;
21245;SDS011;10781;50.928;4.440;2023-02-03T05:16:42;3.92;;;1.23;;
21245;SDS011;10781;50.928;4.440;2023-02-03T05:19:08;3.60;;;1.30;;
21245;SDS011;10781;50.928;4.440;2023-02-03T05:21:34;7.68;;;1.70;;
21245;SDS011;10781;50.928;4.440;2023-02-03T05:23:59;4.35;;;1.25;;
21245;SDS011;10781;50.928;4.440;2023-02-03T05:26:27;5.50;;;1.10;;
21245;SDS011;10781;50.928;4.440;2023-02-03T05:28:52;5.22;;;1.20;;
21245;SDS011;10781;50.928;4.440;2023-02-03T05:31:18;4.90;;;1.10;;
21245;SDS011;10781;50.928;4.440;2023-02-03T05:33:44;4.25;;;1.23;;
21245;SDS011;10781;50.928;4.440;2023-02-03T05:36:09;9.57;;;1.45;;
21245;SDS011;10781;50.928;4.440;2023-02-03T05:38:35;5.68;;;1.13;;
21245;SDS011;10781;50.928;4.440;2023-02-03T05:41:00;5.13;;;1.02;;
21245;SDS011;10781;50.928;4.440;2023-02-03T05:43:45;4.20;;;1.27;;
21245;SDS011;10781;50.928;4.440;2023-02-03T05:46:10;4.68;;;1.15;;
21245;SDS011;10781;50.928;4.440;2023-02-03T05:48:36;4.45;;;1.35;;
21245;SDS011;10781;50.928;4.440;2023-02-03T05:51:02;6.13;;;1.10;;
21245;SDS011;10781;50.928;4.440;2023-02-03T05:53:27;4.95;;;1.20;;
21245;SDS011;10781;50.928;4.440;2023-02-03T05:55:53;5.75;;;1.17;;
21245;SDS011;10781;50.928;4.440;2023-02-03T05:58:19;9.30;;;1.45;;
21245;SDS011;10781;50.928;4.440;2023-02-03T06:00:44;2.40;;;0.80;;
21245;SDS011;10781;50.928;4.440;2023-02-03T06:03:11;4.72;;;1.17;;
21245;SDS011;10781;50.928;4.440;2023-02-03T06:05:36;3.60;;;1.00;;
21245;SDS011;10781;50.928;4.440;2023-02-03T06:08:05;3.80;;;1.10;;
21245;SDS011;10781;50.928;4.440;2023-02-03T06:10:31;4.10;;;1.27;;
21245;SDS011;10781;50.928;4.440;2023-02-03T06:12:57;4.30;;;1.10;;
21245;SDS011;10781;50.928;4.440;2023-02-03T06:15:22;3.90;;;1.10;;
21245;SDS011;10781;50.928;4.440;2023-02-03T06:17:48;5.38;;;1.40;;
21245;SDS011;10781;50.928;4.440;2023-02-03T06:20:15;5.18;;;1.40;;
21245;SDS011;10781;50.928;4.440;2023-02-03T06:22:42;5.95;;;1.23;;
21245;SDS011;10781;50.928;4.440;2023-02-03T06:25:08;3.17;;;0.85;;
21245;SDS011;10781;50.928;4.440;2023-02-03T06:27:35;12.30;;;2.47;;
21245;SDS011;10781;50.928;4.440;2023-02-03T06:30:00;3.13;;;1.38;;
21245;SDS011;10781;50.928;4.440;2023-02-03T06:32:27;3.70;;;1.00;;
21245;SDS011;10781;50.928;4.440;2023-02-03T06:34:52;5.60;;;1.15;;
21245;SDS011;10781;50.928;4.440;2023-02-03T06:37:18;9.48;;;1.55;;
21245;SDS011;10781;50.928;4.440;2023-02-03T06:39:44;3.50;;;1.23;;
21245;SDS011;10781;50.928;4.440;2023-02-03T06:42:09;2.85;;;0.88;;
21245;SDS011;10781;50.928;4.440;2023-02-03T06:44:35;6.47;;;1.10;;
21245;SDS011;10781;50.928;4.440;2023-02-03T06:47:01;5.93;;;1.10;;
21245;SDS011;10781;50.928;4.440;2023-02-03T06:49:27;2.95;;;1.17;;
21245;SDS011;10781;50.928;4.440;2023-02-03T06:51:53;4.53;;;1.23;;
21245;SDS011;10781;50.928;4.440;2023-02-03T06:54:19;5.22;;;1.25;;
21245;SDS011;10781;50.928;4.440;2023-02-03T06:56:44;7.57;;;1.40;;
21245;SDS011;10781;50.928;4.440;2023-02-03T06:59:11;6.93;;;1.25;;
21245;SDS011;10781;50.928;4.440;2023-02-03T07:01:37;2.42;;;1.05;;
21245;SDS011;10781;50.928;4.440;2023-02-03T07:04:02;6.00;;;1.33;;
21245;SDS011;10781;50.928;4.440;2023-02-03T07:06:28;3.60;;;1.10;;
21245;SDS011;10781;50.928;4.440;2023-02-03T07:08:57;4.72;;;2.65;;
21245;SDS011;10781;50.928;4.440;2023-02-03T07:11:23;8.38;;;1.35;;
21245;SDS011;10781;50.928;4.440;2023-02-03T07:13:50;8.77;;;1.42;;
21245;SDS011;10781;50.928;4.440;2023-02-03T07:16:16;5.75;;;1.40;;
21245;SDS011;10781;50.928;4.440;2023-02-03T07:18:41;4.57;;;1.27;;
21245;SDS011;10781;50.928;4.440;2023-02-03T07:21:07;4.20;;;1.58;;
21245;SDS011;10781;50.928;4.440;2023-02-03T07:23:33;6.78;;;1.50;;
21245;SDS011;10781;50.928;4.440;2023-02-03T07:25:59;6.13;;;1.30;;
21245;SDS011;10781;50.928;4.440;2023-02-03T07:28:26;4.93;;;1.40;;
21245;SDS011;10781;50.928;4.440;2023-02-03T07:30:52;5.70;;;1.20;;
21245;SDS011;10781;50.928;4.440;2023-02-03T07:33:18;7.00;;;1.48;;
21245;SDS011;10781;50.928;4.440;2023-02-03T07:35:49;4.15;;;1.30;;
21245;SDS011;10781;50.928;4.440;2023-02-03T07:38:19;5.13;;;1.35;;
21245;SDS011;10781;50.928;4.440;2023-02-03T07:40:45;7.47;;;1.63;;
21245;SDS011;10781;50.928;4.440;2023-02-03T07:43:11;6.10;;;1.65;;
21245;SDS011;10781;50.928;4.440;2023-02-03T07:45:36;9.98;;;1.50;;
21245;SDS011;10781;50.928;4.440;2023-02-03T07:48:02;9.10;;;1.45;;
21245;SDS011;10781;50.928;4.440;2023-02-03T07:50:28;4.55;;;1.30;;
21245;SDS011;10781;50.928;4.440;2023-02-03T07:52:54;3.60;;;1.52;;
21245;SDS011;10781;50.928;4.440;2023-02-03T07:55:20;4.88;;;1.42;;
21245;SDS011;10781;50.928;4.440;2023-02-03T07:57:47;5.82;;;1.35;;
21245;SDS011;10781;50.928;4.440;2023-02-03T08:00:13;6.38;;;1.45;;
21245;SDS011;10781;50.928;4.440;2023-02-03T08:02:43;6.50;;;1.52;;
21245;SDS011;10781;50.928;4.440;2023-02-03T08:05:08;7.38;;;1.40;;
21245;SDS011;10781;50.928;4.440;2023-02-03T08:07:35;5.07;;;1.30;;
21245;SDS011;10781;50.928;4.440;2023-02-03T08:10:00;6.55;;;1.50;;
21245;SDS011;10781;50.928;4.440;2023-02-03T08:12:26;5.57;;;1.80;;
21245;SDS011;10781;50.928;4.440;2023-02-03T08:14:52;4.60;;;1.45;;
21245;SDS011;10781;50.928;4.440;2023-02-03T08:17:18;5.88;;;1.30;;
21245;SDS011;10781;50.928;4.440;2023-02-03T08:19:43;5.68;;;1.98;;
21245;SDS011;10781;50.928;4.440;2023-02-03T08:22:09;6.78;;;1.30;;
21245;SDS011;10781;50.928;4.440;2023-02-03T08:24:43;6.93;;;1.17;;
21245;SDS011;10781;50.928;4.440;2023-02-03T08:27:12;7.25;;;1.40;;
21245;SDS011;10781;50.928;4.440;2023-02-03T08:29:39;5.40;;;1.52;;
21245;SDS011;10781;50.928;4.440;2023-02-03T08:32:07;4.45;;;1.20;;
21245;SDS011;10781;50.928;4.440;2023-02-03T08:34:34;3.80;;;1.13;;
21245;SDS011;10781;50.928;4.440;2023-02-03T08:37:00;4.93;;;1.45;;
21245;SDS011;10781;50.928;4.440;2023-02-03T08:39:25;3.15;;;1.30;;
21245;SDS011;10781;50.928;4.440;2023-02-03T08:41:51;6.88;;;1.50;;
21245;SDS011;10781;50.928;4.440;2023-02-03T08:44:17;7.22;;;1.20;;
21245;SDS011;10781;50.928;4.440;2023-02-03T08:46:44;5.60;;;1.48;;
21245;SDS011;10781;50.928;4.440;2023-02-03T08:49:13;5.00;;;1.55;;
21245;SDS011;10781;50.928;4.440;2023-02-03T08:51:38;4.15;;;1.33;;
21245;SDS011;10781;50.928;4.440;2023-02-03T08:54:04;7.03;;;1.45;;
21245;SDS011;10781;50.928;4.440;2023-02-03T08:56:30;3.42;;;1.30;;
21245;SDS011;10781;50.928;4.440;2023-02-03T08:58:58;6.22;;;1.45;;
21245;SDS011;10781;50.928;4.440;2023-02-03T09:01:24;3.85;;;1.67;;
21245;SDS011;10781;50.928;4.440;2023-02-03T09:03:50;5.63;;;1.33;;
21245;SDS011;10781;50.928;4.440;2023-02-03T09:06:15;3.83;;;1.20;;
21245;SDS011;10781;50.928;4.440;2023-02-03T09:08:41;5.78;;;1.58;;
21245;SDS011;10781;50.928;4.440;2023-02-03T09:11:12;7.40;;;1.52;;
21245;SDS011;10781;50.928;4.440;2023-02-03T09:13:39;4.10;;;1.20;;
21245;SDS011;10781;50.928;4.440;2023-02-03T09:16:09;4.47;;;1.38;;
21245;SDS011;10781;50.928;4.440;2023-02-03T09:18:34;7.65;;;1.60;;
21245;SDS011;10781;50.928;4.440;2023-02-03T09:21:07;3.55;;;1.30;;
21245;SDS011;10781;50.928;4.440;2023-02-03T09:23:35;4.28;;;1.50;;
21245;SDS011;10781;50.928;4.440;2023-02-03T09:26:05;5.35;;;1.45;;
21245;SDS011;10781;50.928;4.440;2023-02-03T09:28:32;3.25;;;1.42;;
21245;SDS011;10781;50.928;4.440;2023-02-03T09:30:59;7.18;;;1.52;;
21245;SDS011;10781;50.928;4.440;2023-02-03T09:33:29;3.10;;;1.40;;
21245;SDS011;10781;50.928;4.440;2023-02-03T09:35:55;3.78;;;1.63;;
21245;SDS011;10781;50.928;4.440;2023-02-03T09:38:22;5.20;;;2.03;;
21245;SDS011;10781;50.928;4.440;2023-02-03T09:40:50;7.03;;;1.65;;
21245;SDS011;10781;50.928;4.440;2023-02-03T09:49:26;3.90;;;1.95;;
21245;SDS011;10781;50.928;4.440;2023-02-03T09:52:01;6.50;;;2.17;;
21245;SDS011;10781;50.928;4.440;2023-02-03T09:54:46;7.97;;;2.15;;
21245;SDS011;10781;50.928;4.440;2023-02-03T09:57:14;3.00;;;1.65;;
21245;SDS011;10781;50.928;4.440;2023-02-03T09:59:47;5.78;;;2.08;;
21245;SDS011;10781;50.928;4.440;2023-02-03T10:05:28;4.35;;;1.77;;
21245;SDS011;10781;50.928;4.440;2023-02-03T10:19:57;5.65;;;1.83;;
21245;SDS011;10781;50.928;4.440;2023-02-03T10:22:25;9.90;;;2.72;;
21245;SDS011;10781;50.928;4.440;2023-02-03T10:24:55;6.25;;;2.45;;
21245;SDS011;10781;50.928;4.440;2023-02-03T10:27:27;5.43;;;2.20;;
21245;SDS011;10781;50.928;4.440;2023-02-03T10:29:57;6.97;;;2.15;;
21245;SDS011;10781;50.928;4.440;2023-02-03T10:32:36;4.30;;;2.40;;
21245;SDS011;10781;50.928;4.440;2023-02-03T10:35:02;6.07;;;2.45;;
21245;SDS011;10781;50.928;4.440;2023-02-03T10:37:30;4.18;;;2.08;;
21245;SDS011;10781;50.928;4.440;2023-02-03T10:40:01;5.45;;;2.67;;
21245;SDS011;10781;50.928;4.440;2023-02-03T10:42:30;5.65;;;2.10;;
21245;SDS011;10781;50.928;4.440;2023-02-03T10:45:17;7.32;;;2.30;;
21245;SDS011;10781;50.928;4.440;2023-02-03T10:47:45;5.72;;;2.42;;
21245;SDS011;10781;50.928;4.440;2023-02-03T10:50:21;7.03;;;2.28;;
21245;SDS011;10781;50.928;4.440;2023-02-03T10:53:17;4.13;;;2.38;;
21245;SDS011;10781;50.928;4.440;2023-02-03T10:58:36;7.55;;;2.95;;
21245;SDS011;10781;50.928;4.440;2023-02-03T11:01:13;5.78;;;2.58;;
21245;SDS011;10781;50.928;4.440;2023-02-03T11:03:41;3.72;;;2.40;;
21245;SDS011;10781;50.928;4.440;2023-02-03T11:08:42;5.20;;;2.95;;
21245;SDS011;10781;50.928;4.440;2023-02-03T11:11:29;4.38;;;2.30;;
21245;SDS011;10781;50.928;4.440;2023-02-03T11:16:26;6.20;;;3.20;;
21245;SDS011;10781;50.928;4.440;2023-02-03T11:18:56;4.78;;;2.83;;
21245;SDS011;10781;50.928;4.440;2023-02-03T11:26:31;6.00;;;3.53;;
21245;SDS011;10781;50.928;4.440;2023-02-03T11:29:04;5.75;;;3.30;;
21245;SDS011;10781;50.928;4.440;2023-02-03T11:31:33;8.68;;;4.25;;
21245;SDS011;10781;50.928;4.440;2023-02-03T11:34:06;5.88;;;3.58;;
21245;SDS011;10781;50.928;4.440;2023-02-03T11:36:41;7.38;;;4.25;;
21245;SDS011;10781;50.928;4.440;2023-02-03T11:39:07;7.35;;;3.35;;
21245;SDS011;10781;50.928;4.440;2023-02-03T11:41:43;7.05;;;3.60;;
21245;SDS011;10781;50.928;4.440;2023-02-03T11:44:27;7.80;;;3.03;;
21245;SDS011;10781;50.928;4.440;2023-02-03T11:47:03;6.03;;;2.85;;
21245;SDS011;10781;50.928;4.440;2023-02-03T11:49:37;5.82;;;2.47;;
21245;SDS011;10781;50.928;4.440;2023-02-03T11:52:35;7.63;;;2.92;;
21245;SDS011;10781;50.928;4.440;2023-02-03T12:03:48;5.63;;;2.85;;
21245;SDS011;10781;50.928;4.440;2023-02-03T12:14:49;6.20;;;2.50;;
21245;SDS011;10781;50.928;4.440;2023-02-03T12:26:12;5.22;;;2.60;;
21245;SDS011;10781;50.928;4.440;2023-02-03T12:29:05;8.38;;;2.78;;
21245;SDS011;10781;50.928;4.440;2023-02-03T12:31:42;5.45;;;2.40;;
21245;SDS011;10781;50.928;4.440;2023-02-03T12:34:32;6.32;;;2.83;;
21245;SDS011;10781;50.928;4.440;2023-02-03T12:37:48;6.47;;;2.75;;
21245;SDS011;10781;50.928;4.440;2023-02-03T12:40:38;4.88;;;2.72;;
21245;SDS011;10781;50.928;4.440;2023-02-03T12:43:26;7.85;;;2.35;;
21245;SDS011;10781;50.928;4.440;2023-02-03T12:51:29;5.15;;;2.53;;
21245;SDS011;10781;50.928;4.440;2023-02-03T12:54:13;5.30;;;2.47;;
21245;SDS011;10781;50.928;4.440;2023-02-03T12:56:53;7.50;;;2.30;;
21245;SDS011;10781;50.928;4.440;2023-02-03T12:59:22;5.22;;;2.30;;
21245;SDS011;10781;50.928;4.440;2023-02-03T13:01:52;7.63;;;2.35;;
21245;SDS011;10781;50.928;4.440;2023-02-03T13:04:30;5.00;;;2.22;;
21245;SDS011;10781;50.928;4.440;2023-02-03T13:09:58;7.15;;;2.10;;
21245;SDS011;10781;50.928;4.440;2023-02-03T13:12:46;5.30;;;2.17;;
21245;SDS011;10781;50.928;4.440;2023-02-03T13:17:45;5.13;;;2.28;;
21245;SDS011;10781;50.928;4.440;2023-02-03T13:20:21;5.03;;;2.08;;
21245;SDS011;10781;50.928;4.440;2023-02-03T13:22:49;7.82;;;2.20;;
21245;SDS011;10781;50.928;4.440;2023-02-03T13:33:17;6.97;;;2.10;;
21245;SDS011;10781;50.928;4.440;2023-02-03T13:44:36;7.35;;;1.98;;
21245;SDS011;10781;50.928;4.440;2023-02-03T13:47:04;6.20;;;2.00;;
21245;SDS011;10781;50.928;4.440;2023-02-03T13:49:33;3.88;;;1.63;;
21245;SDS011;10781;50.928;4.440;2023-02-03T13:52:00;4.63;;;1.88;;
21245;SDS011;10781;50.928;4.440;2023-02-03T13:54:31;6.65;;;2.10;;
21245;SDS011;10781;50.928;4.440;2023-02-03T13:57:00;5.07;;;2.13;;
21245;SDS011;10781;50.928;4.440;2023-02-03T14:07:31;3.00;;;1.70;;
21245;SDS011;10781;50.928;4.440;2023-02-03T14:12:58;7.32;;;2.00;;
21245;SDS011;10781;50.928;4.440;2023-02-03T14:25:39;5.60;;;1.98;;
21245;SDS011;10781;50.928;4.440;2023-02-03T14:28:18;4.05;;;2.00;;
21245;SDS011;10781;50.928;4.440;2023-02-03T14:33:55;4.30;;;1.50;;
21245;SDS011;10781;50.928;4.440;2023-02-03T14:36:33;5.15;;;1.52;;
21245;SDS011;10781;50.928;4.440;2023-02-03T14:47:09;7.43;;;2.25;;
21245;SDS011;10781;50.928;4.440;2023-02-03T14:55:18;5.10;;;2.15;;
21245;SDS011;10781;50.928;4.440;2023-02-03T14:58:13;5.35;;;1.92;;
21245;SDS011;10781;50.928;4.440;2023-02-03T15:00:46;3.90;;;1.90;;
21245;SDS011;10781;50.928;4.440;2023-02-03T15:03:14;4.80;;;2.50;;
21245;SDS011;10781;50.928;4.440;2023-02-03T15:10:54;5.32;;;2.47;;
21245;SDS011;10781;50.928;4.440;2023-02-03T15:13:27;9.55;;;3.00;;
21245;SDS011;10781;50.928;4.440;2023-02-03T15:15:55;9.27;;;3.10;;
21245;SDS011;10781;50.928;4.440;2023-02-03T15:20:55;7.30;;;2.30;;
21245;SDS011;10781;50.928;4.440;2023-02-03T15:23:22;3.47;;;2.00;;
21245;SDS011;10781;50.928;4.440;2023-02-03T15:26:16;5.60;;;2.45;;
21245;SDS011;10781;50.928;4.440;2023-02-03T15:29:00;5.97;;;2.13;;
21245;SDS011;10781;50.928;4.440;2023-02-03T15:32:01;4.65;;;2.20;;
21245;SDS011;10781;50.928;4.440;2023-02-03T15:34:33;5.18;;;2.40;;
21245;SDS011;10781;50.928;4.440;2023-02-03T15:37:07;6.80;;;2.33;;
21245;SDS011;10781;50.928;4.440;2023-02-03T15:42:08;6.10;;;2.70;;
21245;SDS011;10781;50.928;4.440;2023-02-03T15:45:11;4.80;;;2.45;;
21245;SDS011;10781;50.928;4.440;2023-02-03T15:48:01;2.92;;;2.13;;
21245;SDS011;10781;50.928;4.440;2023-02-03T15:50:34;6.25;;;2.40;;
21245;SDS011;10781;50.928;4.440;2023-02-03T15:53:07;5.65;;;2.50;;
21245;SDS011;10781;50.928;4.440;2023-02-03T15:55:43;7.47;;;2.40;;
21245;SDS011;10781;50.928;4.440;2023-02-03T15:58:25;4.32;;;2.67;;
21245;SDS011;10781;50.928;4.440;2023-02-03T16:00:53;5.90;;;2.70;;
21245;SDS011;10781;50.928;4.440;2023-02-03T16:03:24;6.72;;;3.45;;
21245;SDS011;10781;50.928;4.440;2023-02-03T16:06:44;8.32;;;2.80;;
21245;SDS011;10781;50.928;4.440;2023-02-03T16:09:05;4.80;;;2.53;;
21245;SDS011;10781;50.928;4.440;2023-02-03T16:11:49;6.40;;;2.65;;
21245;SDS011;10781;50.928;4.440;2023-02-03T16:14:30;4.18;;;2.47;;
21245;SDS011;10781;50.928;4.440;2023-02-03T16:16:57;5.35;;;2.75;;
21245;SDS011;10781;50.928;4.440;2023-02-03T16:19:23;5.53;;;2.55;;
21245;SDS011;10781;50.928;4.440;2023-02-03T16:21:56;4.45;;;2.28;;
21245;SDS011;10781;50.928;4.440;2023-02-03T16:24:40;3.58;;;2.28;;
21245;SDS011;10781;50.928;4.440;2023-02-03T16:27:20;5.75;;;2.78;;
21245;SDS011;10781;50.928;4.440;2023-02-03T16:29:49;3.90;;;2.60;;
21245;SDS011;10781;50.928;4.440;2023-02-03T16:32:34;5.57;;;2.60;;
21245;SDS011;10781;50.928;4.440;2023-02-03T16:35:19;7.25;;;2.53;;
21245;SDS011;10781;50.928;4.440;2023-02-03T16:38:04;5.57;;;2.75;;
21245;SDS011;10781;50.928;4.440;2023-02-03T16:40:49;5.50;;;2.67;;
21245;SDS011;10781;50.928;4.440;2023-02-03T16:43:33;5.45;;;2.90;;
21245;SDS011;10781;50.928;4.440;2023-02-03T16:46:17;6.72;;;2.90;;
21245;SDS011;10781;50.928;4.440;2023-02-03T16:49:01;7.68;;;3.10;;
21245;SDS011;10781;50.928;4.440;2023-02-03T16:51:46;6.28;;;2.88;;
21245;SDS011;10781;50.928;4.440;2023-02-03T16:54:12;5.68;;;2.90;;
21245;SDS011;10781;50.928;4.440;2023-02-03T16:56:38;6.50;;;2.70;;
21245;SDS011;10781;50.928;4.440;2023-02-03T16:59:05;5.32;;;2.53;;
21245;SDS011;10781;50.928;4.440;2023-02-03T17:01:30;6.32;;;2.85;;
21245;SDS011;10781;50.928;4.440;2023-02-03T17:03:56;6.50;;;3.20;;
21245;SDS011;10781;50.928;4.440;2023-02-03T17:06:22;7.95;;;4.45;;
21245;SDS011;10781;50.928;4.440;2023-02-03T17:08:47;6.22;;;3.15;;
21245;SDS011;10781;50.928;4.440;2023-02-03T17:11:17;5.68;;;3.20;;
21245;SDS011;10781;50.928;4.440;2023-02-03T17:13:44;7.05;;;3.80;;
21245;SDS011;10781;50.928;4.440;2023-02-03T17:16:15;5.30;;;3.13;;
21245;SDS011;10781;50.928;4.440;2023-02-03T17:18:43;5.93;;;3.20;;
21245;SDS011;10781;50.928;4.440;2023-02-03T17:21:11;7.32;;;3.00;;
21245;SDS011;10781;50.928;4.440;2023-02-03T17:23:49;8.50;;;3.33;;
21245;SDS011;10781;50.928;4.440;2023-02-03T17:26:14;8.13;;;2.80;;
21245;SDS011;10781;50.928;4.440;2023-02-03T17:28:40;7.40;;;3.50;;
21245;SDS011;10781;50.928;4.440;2023-02-03T17:31:07;5.97;;;3.03;;
21245;SDS011;10781;50.928;4.440;2023-02-03T17:33:39;7.35;;;3.25;;
21245;SDS011;10781;50.928;4.440;2023-02-03T17:36:06;5.32;;;3.15;;
21245;SDS011;10781;50.928;4.440;2023-02-03T17:38:38;6.90;;;3.00;;
21245;SDS011;10781;50.928;4.440;2023-02-03T17:41:09;5.88;;;2.92;;
21245;SDS011;10781;50.928;4.440;2023-02-03T17:43:37;6.53;;;2.78;;